createdAt,value
2023-02-19T00:00:50.963Z,99083.97
2023-02-19T00:01:53.610Z,99087.63
2023-02-19T00:02:57.032Z,99085.41
2023-02-19T00:04:01.183Z,99073.84
2023-02-19T00:05:02.977Z,99070.19
2023-02-19T00:06:09.963Z,99072.22
2023-02-19T00:07:11.662Z,99072.19
2023-02-19T00:08:13.438Z,99070.56
2023-02-19T00:09:17.044Z,99070.97
2023-02-19T00:10:18.819Z,99073.84
2023-02-19T00:11:23.310Z,99079.34
2023-02-19T00:12:25.041Z,99079.72
2023-02-19T00:13:26.796Z,99065.09
2023-02-19T00:14:28.508Z,99065.31
2023-02-19T00:15:32.700Z,99060.03
2023-02-19T00:16:38.007Z,99062.28
2023-02-19T00:17:39.691Z,99062.47
2023-02-19T00:18:42.515Z,99058.41
2023-02-19T00:19:44.247Z,99051.91
2023-02-19T00:20:45.917Z,99058.41
2023-02-19T00:21:48.381Z,99063.09
2023-02-19T00:22:50.073Z,99054.13
2023-02-19T00:24:02.755Z,99037.28
2023-02-19T00:25:04.585Z,99039.31
2023-02-19T00:26:18.171Z,99043.78
2023-02-19T00:27:20.437Z,99042.97
2023-02-19T00:28:22.728Z,99040.75
2023-02-19T00:29:25.219Z,99045.03
2023-02-19T00:30:27.065Z,99046.63
2023-02-19T00:31:34.432Z,99040.53
2023-02-19T00:32:36.238Z,99030.19
2023-02-19T00:33:37.919Z,99041.75
2023-02-19T00:34:39.620Z,99033.22
2023-02-19T00:35:41.397Z,99034.25
2023-02-19T00:36:43.636Z,99033.44
2023-02-19T00:37:45.337Z,99035.25
2023-02-19T00:38:47.393Z,99037.31
2023-02-19T00:39:49.154Z,99036.88
2023-02-19T00:40:50.855Z,99036.66
2023-02-19T00:41:52.584Z,99035.03
2023-02-19T00:42:54.368Z,99037.69
2023-02-19T00:43:57.958Z,99035.06
2023-02-19T00:44:59.683Z,99027.94
2023-02-19T00:46:01.377Z,99023.06
2023-02-19T00:47:03.197Z,99017.19
2023-02-19T00:48:04.971Z,99010.09
2023-02-19T00:49:08.967Z,99013.72
2023-02-19T00:50:10.816Z,99014.75
2023-02-19T00:51:13.018Z,99019.41
2023-02-19T00:52:14.727Z,99004.78
2023-02-19T00:53:16.431Z,99003.56
2023-02-19T00:54:18.569Z,99011.72
2023-02-19T00:55:20.329Z,99012.09
2023-02-19T00:56:22.169Z,99020.84
2023-02-19T00:57:23.884Z,99014.72
2023-02-19T00:58:25.587Z,99017.16
2023-02-19T00:59:27.280Z,99004.38
2023-02-19T01:00:31.884Z,99012.53
2023-02-19T01:01:33.643Z,99014.13
2023-02-19T01:02:35.370Z,99012.28
2023-02-19T01:03:38.456Z,99005.19
2023-02-19T01:04:40.224Z,98998.91
2023-02-19T01:05:41.936Z,98997.47
2023-02-19T01:06:43.768Z,98991.38
2023-02-19T01:07:45.500Z,98992.41
2023-02-19T01:08:47.455Z,98994.41
2023-02-19T01:09:49.154Z,99003.16
2023-02-19T01:10:51.192Z,99001.94
2023-02-19T01:11:52.906Z,99007.44
2023-02-19T01:12:54.597Z,99005.19
2023-02-19T01:14:01.163Z,99010.66
2023-02-19T01:15:03.088Z,99006.19
2023-02-19T01:16:12.290Z,98999.72
2023-02-19T01:17:14.016Z,99008.25
2023-02-19T01:18:15.960Z,99003.16
2023-02-19T01:19:17.696Z,98990.59
2023-02-19T01:20:19.510Z,98989.16
2023-02-19T01:21:23.329Z,98991.78
2023-02-19T01:22:25.052Z,98993.63
2023-02-19T01:23:26.865Z,98986.94
2023-02-19T01:24:28.641Z,98996.88
2023-02-19T01:25:30.350Z,98992.00
2023-02-19T01:26:33.515Z,99005.41
2023-02-19T01:27:35.209Z,98991.78
2023-02-19T01:28:37.167Z,99001.34
2023-02-19T01:29:38.976Z,98994.63
2023-02-19T01:30:40.950Z,98997.91
2023-02-19T01:31:42.798Z,99001.97
2023-02-19T01:32:44.633Z,99002.53
2023-02-19T01:33:48.227Z,98999.69
2023-02-19T01:34:49.925Z,99008.44
2023-02-19T01:35:51.616Z,99008.03
2023-02-19T01:36:53.357Z,98999.50
2023-02-19T01:37:55.040Z,99011.47
2023-02-19T01:38:57.116Z,99002.13
2023-02-19T01:39:58.865Z,99000.50
2023-02-19T01:41:04.214Z,99008.59
2023-02-19T01:42:13.339Z,99009.63
2023-02-19T01:43:16.486Z,99011.44
2023-02-19T01:44:18.626Z,99003.94
2023-02-19T01:45:28.779Z,99006.78
2023-02-19T01:46:38.519Z,99013.47
2023-02-19T01:47:40.492Z,98993.38
2023-02-19T01:48:42.326Z,99006.94
2023-02-19T01:49:50.039Z,99008.41
2023-02-19T01:51:14.445Z,98992.56
2023-02-19T01:52:32.797Z,99001.06
2023-02-19T01:53:39.722Z,99001.88
2023-02-19T01:54:44.318Z,98987.22
2023-02-19T01:55:48.514Z,98996.97
2023-02-19T01:56:50.424Z,98986.78
2023-02-19T01:57:56.287Z,98982.06
2023-02-19T01:58:59.289Z,98988.16
2023-02-19T02:00:08.410Z,98990.34
2023-02-19T02:01:10.677Z,98984.25
2023-02-19T02:02:12.822Z,98987.66
2023-02-19T02:03:16.324Z,98979.31
2023-02-19T02:04:19.194Z,98970.34
2023-02-19T02:05:45.732Z,98971.09
2023-02-19T02:06:54.683Z,98955.44
2023-02-19T02:08:15.663Z,98959.28
2023-02-19T02:09:39.092Z,98969.78
2023-02-19T02:10:41.991Z,98965.47
2023-02-19T02:11:49.530Z,98966.44
2023-02-19T02:12:56.312Z,98970.22
2023-02-19T02:13:59.056Z,98967.94
2023-02-19T02:15:00.824Z,98973.53
2023-02-19T02:16:02.522Z,98963.25
2023-02-19T02:17:10.089Z,98972.34
2023-02-19T02:18:21.201Z,98969.63
2023-02-19T02:20:16.159Z,98969.13
2023-02-19T02:21:23.205Z,98973.78
2023-02-19T02:22:33.321Z,98973.31
2023-02-19T02:24:16.955Z,98983.28
2023-02-19T02:25:49.165Z,98985.72
2023-02-19T02:27:02.897Z,98973.06
2023-02-19T02:28:36.548Z,98983.19
2023-02-19T02:30:12.996Z,98988.50
2023-02-19T02:31:23.141Z,98983.78
2023-02-19T02:32:27.830Z,98984.81
2023-02-19T02:33:49.219Z,98990.34
2023-02-19T02:34:59.718Z,98988.97
2023-02-19T02:36:20.525Z,98989.53
2023-02-19T02:37:25.835Z,98975.75
2023-02-19T02:38:32.032Z,98986.88
2023-02-19T02:39:34.543Z,98992.97
2023-02-19T02:40:37.512Z,98990.78
2023-02-19T02:42:09.880Z,99006.78
2023-02-19T02:43:12.972Z,99012.69
2023-02-19T02:44:14.724Z,99008.41
2023-02-19T02:45:38.093Z,99017.16
2023-02-19T02:46:44.811Z,99015.34
2023-02-19T02:47:56.028Z,99011.66
2023-02-19T02:48:58.622Z,99019.00
2023-02-19T02:50:07.129Z,99010.25
2023-02-19T02:51:27.466Z,99009.28
2023-02-19T02:52:47.888Z,98997.94
2023-02-19T02:54:11.420Z,99015.00
2023-02-19T02:55:13.274Z,99007.03
2023-02-19T02:56:16.952Z,99012.81
2023-02-19T02:57:19.573Z,99001.63
2023-02-19T02:58:24.052Z,99014.66
2023-02-19T02:59:31.550Z,99008.06
2023-02-19T03:00:54.669Z,99016.47
2023-02-19T03:02:19.116Z,99008.97
2023-02-19T03:03:25.989Z,99007.72
2023-02-19T03:05:04.222Z,99006.09
2023-02-19T03:06:09.302Z,99011.19
2023-02-19T03:07:12.196Z,98988.19
2023-02-19T03:08:18.752Z,99011.53
2023-02-19T03:09:30.360Z,99010.16
2023-02-19T03:10:46.177Z,99021.94
2023-02-19T03:12:11.049Z,99022.72
2023-02-19T03:13:36.982Z,99013.53
2023-02-19T03:15:04.519Z,99025.16
2023-02-19T03:16:35.512Z,99030.63
2023-02-19T03:18:03.681Z,99022.31
2023-02-19T03:19:21.489Z,99039.03
2023-02-19T03:20:24.676Z,99032.75
2023-02-19T03:21:28.773Z,99030.91
2023-02-19T03:22:35.276Z,99047.56
2023-02-19T03:23:56.890Z,99041.84
2023-02-19T03:25:26.491Z,99033.28
2023-02-19T03:26:28.661Z,99038.88
2023-02-19T03:27:35.668Z,99040.13
2023-02-19T03:28:58.954Z,99038.84
2023-02-19T03:30:08.830Z,99044.59
2023-02-19T03:31:15.674Z,99043.72
2023-02-19T03:32:42.207Z,99042.91
2023-02-19T03:33:47.705Z,99045.13
2023-02-19T03:34:57.251Z,99044.91
2023-02-19T03:36:05.448Z,99037.16
2023-02-19T03:37:13.757Z,99041.59
2023-02-19T03:38:26.851Z,99034.22
2023-02-19T03:39:28.731Z,99029.94
2023-02-19T03:40:34.655Z,99044.38
2023-02-19T03:41:51.248Z,99035.41
2023-02-19T03:43:25.538Z,99033.34
2023-02-19T03:44:45.100Z,99032.31
2023-02-19T03:45:58.433Z,99035.56
2023-02-19T03:47:13.995Z,99030.81
2023-02-19T03:48:28.929Z,99041.22
2023-02-19T03:49:30.567Z,99025.66
2023-02-19T03:51:04.908Z,99033.19
2023-02-19T03:52:41.815Z,99031.56
2023-02-19T03:53:58.554Z,99040.34
2023-02-19T03:55:08.983Z,99032.00
2023-02-19T03:56:22.328Z,99041.75
2023-02-19T03:57:33.916Z,99047.84
2023-02-19T03:58:41.484Z,99039.44
2023-02-19T03:59:53.011Z,99050.63
2023-02-19T04:00:54.675Z,99043.06
2023-02-19T04:02:08.520Z,99048.13
2023-02-19T04:03:20.068Z,99044.44
2023-02-19T04:04:29.474Z,99045.31
2023-02-19T04:05:35.436Z,99041.00
2023-02-19T04:06:40.052Z,99047.69
2023-02-19T04:07:48.028Z,99043.66
2023-02-19T04:08:54.824Z,99063.63
2023-02-19T04:09:56.767Z,99029.22
2023-02-19T04:11:00.322Z,99051.22
2023-02-19T04:12:02.960Z,99048.94
2023-02-19T04:13:12.108Z,99046.28
2023-02-19T04:14:23.295Z,99059.25
2023-02-19T04:15:27.729Z,99064.72
2023-02-19T04:16:32.767Z,99058.97
2023-02-19T04:18:07.910Z,99063.22
2023-02-19T04:19:14.014Z,99052.47
2023-02-19T04:20:17.331Z,99060.34
2023-02-19T04:21:22.618Z,99067.47
2023-02-19T04:22:25.392Z,99057.78
2023-02-19T04:23:30.789Z,99063.53
2023-02-19T04:24:38.583Z,99080.19
2023-02-19T04:25:44.073Z,99069.81
2023-02-19T04:26:46.554Z,99077.53
2023-02-19T04:27:48.268Z,99076.56
2023-02-19T04:28:49.988Z,99071.25
2023-02-19T04:29:51.713Z,99081.88
2023-02-19T04:30:53.459Z,99076.19
2023-02-19T04:31:55.256Z,99080.34
2023-02-19T04:32:56.948Z,99083.00
2023-02-19T04:33:58.660Z,99080.78
2023-02-19T04:35:00.499Z,99090.97
2023-02-19T04:36:02.303Z,99088.06
2023-02-19T04:37:04.245Z,99073.09
2023-02-19T04:38:06.077Z,99092.66
2023-02-19T04:39:08.760Z,99090.44
2023-02-19T04:40:10.873Z,99087.78
2023-02-19T04:41:13.036Z,99086.97
2023-02-19T04:42:14.893Z,99093.09
2023-02-19T04:43:16.636Z,99092.06
2023-02-19T04:44:18.337Z,99087.06
2023-02-19T04:45:20.082Z,99093.78
2023-02-19T04:46:21.961Z,99095.59
2023-02-19T04:47:23.728Z,99102.06
2023-02-19T04:48:25.424Z,99098.03
2023-02-19T04:49:27.145Z,99102.06
2023-02-19T04:50:28.989Z,99096.84
2023-02-19T04:51:30.740Z,99096.84
2023-02-19T04:52:33.432Z,99100.09
2023-02-19T04:53:36.269Z,99108.06
2023-02-19T04:54:38.187Z,99097.13
2023-02-19T04:55:39.956Z,99103.78
2023-02-19T04:56:41.644Z,99097.50
2023-02-19T04:57:43.419Z,99105.47
2023-02-19T04:58:45.803Z,99092.88
2023-02-19T04:59:47.591Z,99110.34
2023-02-19T05:00:53.387Z,99113.19
2023-02-19T05:01:55.231Z,99113.41
2023-02-19T05:02:56.948Z,99110.84
2023-02-19T05:03:58.679Z,99101.06
2023-02-19T05:05:00.397Z,99111.56
2023-02-19T05:06:07.436Z,99114.81
2023-02-19T05:07:09.268Z,99109.34
2023-02-19T05:08:10.942Z,99120.56
2023-02-19T05:09:12.703Z,99120.13
2023-02-19T05:10:14.408Z,99122.78
2023-02-19T05:11:16.094Z,99118.28
2023-02-19T05:12:17.858Z,99110.75
2023-02-19T05:13:19.612Z,99117.66
2023-02-19T05:14:21.457Z,99116.44
2023-02-19T05:15:23.142Z,99110.94
2023-02-19T05:16:25.381Z,99113.50
2023-02-19T05:17:27.143Z,99115.94
2023-02-19T05:18:30.273Z,99119.25
2023-02-19T05:19:32.108Z,99112.78
2023-02-19T05:20:33.827Z,99115.56
2023-02-19T05:21:35.516Z,99111.97
2023-02-19T05:22:37.222Z,99120.84
2023-02-19T05:23:39.608Z,99116.03
2023-02-19T05:24:41.415Z,99117.25
2023-02-19T05:25:43.133Z,99122.13
2023-02-19T05:26:45.558Z,99117.84
2023-02-19T05:27:47.353Z,99129.63
2023-02-19T05:28:51.627Z,99122.78
2023-02-19T05:29:53.372Z,99119.91
2023-02-19T05:30:56.845Z,99126.63
2023-02-19T05:31:58.622Z,99135.63
2023-02-19T05:33:00.306Z,99130.31
2023-02-19T05:34:02.204Z,99120.78
2023-02-19T05:35:04.392Z,99128.91
2023-02-19T05:36:08.733Z,99132.38
2023-02-19T05:37:10.535Z,99132.38
2023-02-19T05:38:12.405Z,99132.38
2023-02-19T05:39:14.308Z,99136.25
2023-02-19T05:40:16.061Z,99126.31
2023-02-19T05:41:20.977Z,99138.06
2023-02-19T05:42:22.733Z,99135.41
2023-02-19T05:43:24.419Z,99137.25
2023-02-19T05:44:26.299Z,99144.53
2023-02-19T05:45:28.054Z,99141.06
2023-02-19T05:46:30.255Z,99146.75
2023-02-19T05:47:32.030Z,99143.44
2023-02-19T05:48:34.181Z,99138.44
2023-02-19T05:49:36.007Z,99148.72
2023-02-19T05:50:39.693Z,99146.16
2023-02-19T05:51:41.613Z,99149.59
2023-02-19T05:52:44.332Z,99145.16
2023-02-19T05:53:46.741Z,99153.84
2023-02-19T05:54:48.481Z,99145.84
2023-02-19T05:55:50.171Z,99148.84
2023-02-19T05:56:51.907Z,99144.47
2023-02-19T05:57:53.665Z,99149.00
2023-02-19T05:58:55.727Z,99153.22
2023-02-19T05:59:57.522Z,99153.69
2023-02-19T06:00:59.228Z,99141.06
2023-02-19T06:02:00.989Z,99160.50
2023-02-19T06:03:02.843Z,99163.91
2023-02-19T06:04:04.816Z,99157.88
2023-02-19T06:05:07.399Z,99164.94
2023-02-19T06:06:13.123Z,99170.75
2023-02-19T06:07:14.837Z,99161.72
2023-02-19T06:08:16.750Z,99168.56
2023-02-19T06:09:18.457Z,99160.34
2023-02-19T06:10:20.236Z,99171.09
2023-02-19T06:11:22.127Z,99175.38
2023-02-19T06:12:24.106Z,99179.81
2023-02-19T06:13:25.809Z,99167.53
2023-02-19T06:14:27.504Z,99170.88
2023-02-19T06:15:29.197Z,99166.03
2023-02-19T06:16:32.353Z,99181.53
2023-02-19T06:17:34.723Z,99188.84
2023-02-19T06:18:36.438Z,99185.25
2023-02-19T06:19:38.220Z,99181.88
2023-02-19T06:20:40.003Z,99178.53
2023-02-19T06:21:41.781Z,99193.94
2023-02-19T06:22:43.635Z,99182.25
2023-02-19T06:23:45.915Z,99185.25
2023-02-19T06:24:48.329Z,99182.25
2023-02-19T06:25:50.016Z,99181.09
2023-02-19T06:26:51.731Z,99190.47
2023-02-19T06:27:53.447Z,99197.72
2023-02-19T06:28:55.221Z,99188.94
2023-02-19T06:29:56.938Z,99188.47
2023-02-19T06:30:59.388Z,99196.13
2023-02-19T06:32:01.482Z,99196.13
2023-02-19T06:33:03.340Z,99201.19
2023-02-19T06:34:05.758Z,99203.31
2023-02-19T06:35:07.825Z,99201.78
2023-02-19T06:36:17.691Z,99198.28
2023-02-19T06:37:19.501Z,99205.13
2023-02-19T06:38:22.317Z,99208.03
2023-02-19T06:39:24.109Z,99202.34
2023-02-19T06:40:25.841Z,99202.13
2023-02-19T06:41:27.618Z,99201.88
2023-02-19T06:42:32.818Z,99207.19
2023-02-19T06:43:35.218Z,99213.19
2023-02-19T06:44:36.935Z,99211.81
2023-02-19T06:45:38.633Z,99208.44
2023-02-19T06:46:40.393Z,99206.59
2023-02-19T06:47:42.165Z,99214.91
2023-02-19T06:48:45.342Z,99223.03
2023-02-19T06:49:47.008Z,99212.91
2023-02-19T06:50:48.718Z,99211.41
2023-02-19T06:51:50.421Z,99210.13
2023-02-19T06:52:52.134Z,99207.91
2023-02-19T06:53:53.897Z,99211.94
2023-02-19T06:54:55.583Z,99207.91
2023-02-19T06:56:01.111Z,99217.94
2023-02-19T06:57:03.422Z,99216.44
2023-02-19T06:58:05.126Z,99210.19
2023-02-19T06:59:12.907Z,99221.19
2023-02-19T07:00:14.892Z,99224.34
2023-02-19T07:01:16.693Z,99213.91
2023-02-19T07:02:18.474Z,99203.34
2023-02-19T07:03:20.562Z,99216.69
2023-02-19T07:04:22.341Z,99230.00
2023-02-19T07:05:24.077Z,99220.06
2023-02-19T07:06:26.738Z,99222.13
2023-02-19T07:07:28.439Z,99228.13
2023-02-19T07:08:30.800Z,99223.69
2023-02-19T07:09:32.599Z,99208.03
2023-02-19T07:10:34.275Z,99223.06
2023-02-19T07:11:38.297Z,99220.50
2023-02-19T07:12:40.036Z,99219.03
2023-02-19T07:13:41.806Z,99225.13
2023-02-19T07:14:43.556Z,99222.56
2023-02-19T07:15:45.256Z,99219.00
2023-02-19T07:16:47.646Z,99218.91
2023-02-19T07:17:49.357Z,99212.19
2023-02-19T07:18:51.128Z,99222.00
2023-02-19T07:19:52.894Z,99206.78
2023-02-19T07:20:54.598Z,99223.03
2023-02-19T07:21:56.322Z,99207.19
2023-02-19T07:22:58.023Z,99229.25
2023-02-19T07:23:59.722Z,99224.53
2023-02-19T07:25:01.416Z,99229.44
2023-02-19T07:26:03.511Z,99220.22
2023-02-19T07:27:05.226Z,99224.50
2023-02-19T07:28:07.514Z,99226.47
2023-02-19T07:29:10.314Z,99224.81
2023-02-19T07:30:12.385Z,99223.50
2023-02-19T07:31:18.796Z,99218.38
2023-02-19T07:32:20.624Z,99223.00
2023-02-19T07:33:22.307Z,99217.44
2023-02-19T07:34:24.005Z,99225.22
2023-02-19T07:35:25.768Z,99213.44
2023-02-19T07:36:27.477Z,99216.63
2023-02-19T07:37:29.170Z,99217.25
2023-02-19T07:38:30.936Z,99210.31
2023-02-19T07:39:32.615Z,99227.47
2023-02-19T07:40:34.769Z,99218.44
2023-02-19T07:41:36.461Z,99212.91
2023-02-19T07:42:38.183Z,99218.28
2023-02-19T07:43:40.735Z,99219.91
2023-02-19T07:44:42.468Z,99222.31
2023-02-19T07:45:44.249Z,99224.44
2023-02-19T07:46:46.073Z,99228.41
2023-02-19T07:47:47.766Z,99223.00
2023-02-19T07:48:49.504Z,99218.50
2023-02-19T07:49:51.203Z,99224.16
2023-02-19T07:50:57.460Z,99218.81
2023-02-19T07:51:59.145Z,99226.19
2023-02-19T07:53:00.872Z,99226.66
2023-02-19T07:54:02.626Z,99232.34
2023-02-19T07:55:04.459Z,99229.34
2023-02-19T07:56:08.036Z,99228.88
2023-02-19T07:57:09.757Z,99229.16
2023-02-19T07:58:11.514Z,99222.34
2023-02-19T07:59:13.290Z,99210.66
2023-02-19T08:00:15.328Z,99228.19
2023-02-19T08:01:39.988Z,99220.19
2023-02-19T08:03:00.092Z,99215.38
2023-02-19T08:04:01.882Z,99221.03
2023-02-19T08:05:04.290Z,99216.56
2023-02-19T08:06:06.388Z,99217.69
2023-02-19T08:07:08.123Z,99222.53
2023-02-19T08:08:12.495Z,99223.94
2023-02-19T08:09:14.235Z,99224.78
2023-02-19T08:10:34.651Z,99227.19
2023-02-19T08:11:55.216Z,99222.34
2023-02-19T08:13:19.359Z,99216.97
2023-02-19T08:14:25.361Z,99219.38
2023-02-19T08:15:27.262Z,99226.31
2023-02-19T08:16:42.217Z,99212.91
2023-02-19T08:17:44.884Z,99224.47
2023-02-19T08:18:48.034Z,99222.88
2023-02-19T08:19:49.744Z,99230.41
2023-02-19T08:20:51.722Z,99228.53
2023-02-19T08:21:53.760Z,99219.13
2023-02-19T08:22:55.489Z,99228.25
2023-02-19T08:23:57.252Z,99222.34
2023-02-19T08:24:58.961Z,99219.13
2023-02-19T08:26:02.487Z,99222.06
2023-02-19T08:27:04.299Z,99226.13
2023-02-19T08:28:07.198Z,99215.91
2023-02-19T08:29:08.916Z,99207.84
2023-02-19T08:30:11.114Z,99225.84
2023-02-19T08:31:13.699Z,99223.16
2023-02-19T08:32:15.690Z,99216.97
2023-02-19T08:33:19.248Z,99209.44
2023-02-19T08:34:20.950Z,99213.66
2023-02-19T08:35:23.039Z,99203.13
2023-02-19T08:36:24.781Z,99196.94
2023-02-19T08:37:26.480Z,99178.44
2023-02-19T08:38:28.193Z,99201.78
2023-02-19T08:39:29.879Z,99205.78
2023-02-19T08:40:32.102Z,99204.03
2023-02-19T08:41:33.851Z,99197.72
2023-02-19T08:42:35.542Z,99201.25
2023-02-19T08:43:37.641Z,99198.72
2023-02-19T08:44:39.357Z,99195.25
2023-02-19T08:45:43.395Z,99193.81
2023-02-19T08:46:45.128Z,99198.47
2023-02-19T08:47:46.916Z,99201.56
2023-02-19T08:48:48.699Z,99193.28
2023-02-19T08:49:50.382Z,99205.59
2023-02-19T08:51:04.363Z,99197.13
2023-02-19T08:52:06.107Z,99204.13
2023-02-19T08:53:07.920Z,99191.75
2023-02-19T08:54:09.618Z,99196.56
2023-02-19T08:55:11.347Z,99165.13
2023-02-19T08:56:16.002Z,99193.06
2023-02-19T08:57:17.883Z,99203.22
2023-02-19T08:58:19.601Z,99192.78
2023-02-19T08:59:21.349Z,99193.13
2023-02-19T09:00:23.327Z,99187.53
2023-02-19T09:01:25.206Z,99188.63
2023-02-19T09:02:26.978Z,99198.22
2023-02-19T09:03:28.737Z,99201.41
2023-02-19T09:04:30.633Z,99203.78
2023-02-19T09:05:32.413Z,99198.16
2023-02-19T09:06:34.237Z,99195.75
2023-02-19T09:07:35.934Z,99194.78
2023-02-19T09:08:37.681Z,99196.59
2023-02-19T09:09:40.391Z,99186.69
2023-02-19T09:10:42.140Z,99186.50
2023-02-19T09:11:43.956Z,99182.63
2023-02-19T09:12:45.655Z,99182.13
2023-02-19T09:13:47.388Z,99184.84
2023-02-19T09:14:49.334Z,99178.84
2023-02-19T09:15:51.104Z,99180.50
2023-02-19T09:16:52.844Z,99174.25
2023-02-19T09:17:54.548Z,99171.56
2023-02-19T09:18:56.238Z,99177.53
2023-02-19T09:19:57.973Z,99164.03
2023-02-19T09:21:01.819Z,99171.81
2023-02-19T09:22:05.047Z,99171.22
2023-02-19T09:23:06.759Z,99167.13
2023-02-19T09:24:11.218Z,99167.53
2023-02-19T09:25:12.978Z,99171.22
2023-02-19T09:26:14.726Z,99163.31
2023-02-19T09:27:18.466Z,99180.31
2023-02-19T09:28:21.148Z,99162.56
2023-02-19T09:29:25.620Z,99173.13
2023-02-19T09:30:27.377Z,99170.47
2023-02-19T09:31:29.245Z,99149.56
2023-02-19T09:32:32.099Z,99155.09
2023-02-19T09:33:33.916Z,99163.75
2023-02-19T09:34:35.650Z,99161.44
2023-02-19T09:35:40.677Z,99151.13
2023-02-19T09:36:42.519Z,99164.53
2023-02-19T09:37:44.344Z,99164.25
2023-02-19T09:38:46.200Z,99159.94
2023-02-19T09:39:47.909Z,99168.31
2023-02-19T09:40:49.814Z,99168.22
2023-02-19T09:42:16.843Z,99166.59
2023-02-19T09:43:22.470Z,99163.50
2023-02-19T09:44:29.048Z,99155.91
2023-02-19T09:45:30.767Z,99151.75
2023-02-19T09:46:46.388Z,99149.66
2023-02-19T09:47:48.329Z,99150.72
2023-02-19T09:48:51.249Z,99148.00
2023-02-19T09:49:56.606Z,99145.22
2023-02-19T09:51:01.771Z,99138.94
2023-02-19T09:52:12.285Z,99140.50
2023-02-19T09:53:40.840Z,99140.16
2023-02-19T09:54:43.640Z,99135.13
2023-02-19T09:55:45.452Z,99126.69
2023-02-19T09:56:47.670Z,99135.63
2023-02-19T09:57:51.235Z,99128.91
2023-02-19T09:58:56.312Z,99127.16
2023-02-19T10:00:09.108Z,99131.88
2023-02-19T10:01:13.523Z,99123.63
2023-02-19T10:02:21.985Z,99121.25
2023-02-19T10:03:31.024Z,99114.53
2023-02-19T10:04:32.828Z,99105.78
2023-02-19T10:05:35.316Z,99109.84
2023-02-19T10:06:38.142Z,99112.16
2023-02-19T10:07:52.454Z,99109.03
2023-02-19T10:09:13.758Z,99104.63
2023-02-19T10:10:15.409Z,99099.09
2023-02-19T10:11:18.842Z,99107.88
2023-02-19T10:12:27.258Z,99097.00
2023-02-19T10:13:49.309Z,99095.38
2023-02-19T10:14:54.050Z,99093.13
2023-02-19T10:16:01.915Z,99092.22
2023-02-19T10:17:05.808Z,99096.78
2023-02-19T10:18:09.481Z,99101.44
2023-02-19T10:19:14.490Z,99077.63
2023-02-19T10:20:20.121Z,99096.41
2023-02-19T10:21:27.365Z,99094.72
2023-02-19T10:22:30.135Z,99089.56
2023-02-19T10:23:32.620Z,99094.56
2023-02-19T10:24:34.929Z,99089.81
2023-02-19T10:25:45.052Z,99085.50
2023-02-19T10:26:47.122Z,99080.41
2023-02-19T10:27:49.500Z,99074.91
2023-02-19T10:28:51.260Z,99064.66
2023-02-19T10:29:52.966Z,99071.97
2023-02-19T10:30:58.418Z,99071.25
2023-02-19T10:32:13.721Z,99066.59
2023-02-19T10:33:16.933Z,99068.97
2023-02-19T10:34:22.360Z,99057.81
2023-02-19T10:35:24.185Z,99059.59
2023-02-19T10:36:52.744Z,99057.66
2023-02-19T10:37:54.710Z,99054.63
2023-02-19T10:38:57.544Z,99051.44
2023-02-19T10:39:59.400Z,99047.25
2023-02-19T10:41:14.863Z,99051.59
2023-02-19T10:42:22.435Z,99040.56
2023-02-19T10:43:33.983Z,99039.75
2023-02-19T10:44:43.815Z,99039.13
2023-02-19T10:45:53.110Z,99035.34
2023-02-19T10:46:59.441Z,99040.78
2023-02-19T10:48:01.488Z,99023.38
2023-02-19T10:49:18.941Z,99016.97
2023-02-19T10:50:28.317Z,99019.50
2023-02-19T10:51:41.365Z,99016.00
2023-02-19T10:52:43.780Z,99012.97
2023-02-19T10:53:48.649Z,99010.25
2023-02-19T10:54:53.443Z,99008.66
2023-02-19T10:56:15.463Z,99014.13
2023-02-19T10:57:21.296Z,99001.16
2023-02-19T10:58:30.472Z,98992.03
2023-02-19T10:59:32.156Z,99002.06
2023-02-19T11:00:33.842Z,99007.84
2023-02-19T11:01:35.582Z,98998.09
2023-02-19T11:02:37.304Z,98986.44
2023-02-19T11:03:39.283Z,98987.03
2023-02-19T11:04:41.057Z,98994.13
2023-02-19T11:06:01.379Z,98991.25
2023-02-19T11:07:16.685Z,98990.13
2023-02-19T11:08:22.542Z,98983.09
2023-02-19T11:09:28.869Z,98981.69
2023-02-19T11:10:38.805Z,98983.13
2023-02-19T11:11:40.839Z,98978.00
2023-02-19T11:12:49.353Z,98971.59
2023-02-19T11:13:51.468Z,98972.56
2023-02-19T11:14:53.493Z,98972.38
2023-02-19T11:15:55.983Z,98974.50
2023-02-19T11:17:00.167Z,98975.28
2023-02-19T11:18:07.932Z,98976.22
2023-02-19T11:19:21.492Z,98973.34
2023-02-19T11:20:23.950Z,98970.47
2023-02-19T11:21:33.649Z,98973.16
2023-02-19T11:22:43.111Z,98966.97
2023-02-19T11:23:46.971Z,98978.91
2023-02-19T11:24:52.095Z,98969.34
2023-02-19T11:25:57.525Z,98968.41
2023-02-19T11:27:00.709Z,98970.81
2023-02-19T11:28:18.347Z,98964.56
2023-02-19T11:29:23.293Z,98966.00
2023-02-19T11:30:32.632Z,98959.59
2023-02-19T11:31:36.327Z,98964.00
2023-02-19T11:32:38.088Z,98957.31
2023-02-19T11:33:53.586Z,98965.84
2023-02-19T11:35:22.667Z,98958.81
2023-02-19T11:36:36.199Z,98953.22
2023-02-19T11:37:57.361Z,98947.06
2023-02-19T11:39:02.707Z,98944.66
2023-02-19T11:40:05.159Z,98945.28
2023-02-19T11:41:47.499Z,98945.53
2023-02-19T11:42:59.935Z,98934.69
2023-02-19T11:44:16.904Z,98942.13
2023-02-19T11:45:36.444Z,98944.81
2023-02-19T11:47:13.233Z,98947.53
2023-02-19T11:48:19.365Z,98942.94
2023-02-19T11:49:39.099Z,98937.94
2023-02-19T11:51:05.159Z,98936.47
2023-02-19T11:52:44.418Z,98942.94
2023-02-19T11:53:49.862Z,98939.81
2023-02-19T11:55:11.115Z,98932.34
2023-02-19T11:56:16.068Z,98934.72
2023-02-19T11:57:39.330Z,98926.19
2023-02-19T11:59:05.399Z,98922.00
2023-02-19T12:00:18.873Z,98932.31
2023-02-19T12:01:44.577Z,98929.25
2023-02-19T12:02:49.685Z,98919.84
2023-02-19T12:04:17.523Z,98917.56
2023-02-19T12:05:31.149Z,98913.03
2023-02-19T12:06:47.398Z,98900.41
2023-02-19T12:08:04.292Z,98915.13
2023-02-19T12:09:22.888Z,98907.03
2023-02-19T12:10:47.758Z,98903.28
2023-02-19T12:12:07.755Z,98906.50
2023-02-19T12:13:18.141Z,98901.28
2023-02-19T12:14:47.690Z,98889.41
2023-02-19T12:16:17.119Z,98903.28
2023-02-19T12:17:43.656Z,98907.09
2023-02-19T12:19:14.619Z,98901.91
2023-02-19T12:20:29.616Z,98890.78
2023-02-19T12:22:04.094Z,98890.13
2023-02-19T12:23:24.067Z,98887.75
2023-02-19T12:25:05.079Z,98888.81
2023-02-19T12:26:28.456Z,98888.81
2023-02-19T12:27:45.410Z,98895.53
2023-02-19T12:29:16.454Z,98887.56
2023-02-19T12:30:32.894Z,98888.72
2023-02-19T12:31:54.879Z,98887.66
2023-02-19T12:33:23.123Z,98888.84
2023-02-19T12:34:30.830Z,98885.03
2023-02-19T12:35:58.273Z,98799.88
2023-02-19T12:37:33.769Z,98886.22
2023-02-19T12:38:57.097Z,98881.81
2023-02-19T12:40:21.752Z,98868.00
2023-02-19T12:41:49.273Z,98870.16
2023-02-19T12:42:59.742Z,98857.94
2023-02-19T12:44:28.156Z,98864.22
2023-02-19T12:45:39.659Z,98860.38
2023-02-19T12:47:01.490Z,98855.59
2023-02-19T12:48:12.399Z,98862.22
2023-02-19T12:49:26.443Z,98856.63
2023-02-19T12:50:29.793Z,98851.00
2023-02-19T12:51:37.534Z,98838.41
2023-02-19T12:52:43.179Z,98842.72
2023-02-19T12:54:00.131Z,98850.03
2023-02-19T12:55:19.852Z,98846.81
2023-02-19T12:56:24.200Z,98834.22
2023-02-19T12:57:34.067Z,98837.81
2023-02-19T12:58:44.439Z,98840.91
2023-02-19T13:00:16.468Z,98833.59
2023-02-19T13:01:27.055Z,98827.78
2023-02-19T13:02:54.373Z,98821.97
2023-02-19T13:04:14.305Z,98821.19